Time;durP1;ratioP1;P1;durP2;ratioP2;P2;SDS_P1;SDS_P2;PMS_P1;PMS_P2;Temp;Humidity;BMP_temperature;BMP_pressure;BME280_temperature;BME280_humidity;BME280_pressure;Samples;Min_cycle;Max_cycle;Signal;HPM_P1;HPM_P2
2023/06/05 00:00:36;;;;;;;4.05;1.35;;;13.20;99.90;;;;;;4952962;28;20047;-77
2023/06/05 00:03:24;;;;;;;4.13;1.20;;;13.20;99.90;;;;;;4952843;28;20499;-79
2023/06/05 00:06:10;;;;;;;2.83;1.20;;;13.20;99.90;;;;;;4937045;28;20091;-78
2023/06/05 00:08:57;;;;;;;4.45;1.23;;;13.20;99.90;;;;;;4946942;29;20098;-78
2023/06/05 00:11:43;;;;;;;2.70;1.20;;;13.20;99.90;;;;;;4951049;29;20094;-77
2023/06/05 00:14:29;;;;;;;4.15;1.45;;;13.20;99.90;;;;;;4952478;28;20055;-78
2023/06/05 00:17:16;;;;;;;1.92;0.98;;;13.20;99.90;;;;;;4933938;29;20059;-78
2023/06/05 00:20:03;;;;;;;2.92;1.13;;;13.20;99.90;;;;;;4936104;29;20055;-79
2023/06/05 00:22:50;;;;;;;4.78;1.83;;;13.10;99.90;;;;;;4922355;29;20047;-77
2023/06/05 00:25:36;;;;;;;3.85;1.40;;;13.10;99.90;;;;;;4952751;29;20055;-80
2023/06/05 00:28:24;;;;;;;3.88;1.35;;;13.10;99.90;;;;;;4953581;28;20519;-79
2023/06/05 00:31:12;;;;;;;3.42;1.45;;;13.10;99.90;;;;;;4939295;28;20043;-79
2023/06/05 00:33:58;;;;;;;3.92;1.50;;;13.00;99.90;;;;;;4952220;28;20129;-79
2023/06/05 00:36:45;;;;;;;3.00;1.40;;;13.00;99.90;;;;;;4934211;29;20087;-79
2023/06/05 00:39:31;;;;;;;4.05;1.48;;;13.00;99.90;;;;;;4952110;29;20051;-79
2023/06/05 00:42:17;;;;;;;3.78;1.58;;;13.00;99.90;;;;;;4951106;28;20051;-78
2023/06/05 00:45:04;;;;;;;4.22;1.80;;;13.00;99.90;;;;;;4951895;29;20503;-78
2023/06/05 00:47:51;;;;;;;3.65;1.55;;;12.90;99.90;;;;;;4935243;29;20144;-79
2023/06/05 00:50:37;;;;;;;6.03;1.63;;;13.00;99.90;;;;;;4934902;29;20142;-79
2023/06/05 00:53:25;;;;;;;5.13;1.48;;;12.90;99.90;;;;;;4952548;29;20050;-78
2023/06/05 00:56:11;;;;;;;4.90;1.70;;;13.00;99.90;;;;;;4952115;29;20090;-78
2023/06/05 00:58:58;;;;;;;3.25;1.70;;;13.00;99.90;;;;;;4952007;29;20051;-78
2023/06/05 01:01:45;;;;;;;4.25;1.85;;;13.00;99.90;;;;;;4937736;29;20055;-78
2023/06/05 01:04:32;;;;;;;2.83;1.50;;;13.00;99.90;;;;;;4952165;28;20472;-79
2023/06/05 01:07:21;;;;;;;4.75;1.77;;;13.00;99.90;;;;;;4951955;28;20044;-78
2023/06/05 01:10:08;;;;;;;2.63;1.40;;;13.00;99.90;;;;;;4935656;28;20055;-78
2023/06/05 01:13:08;;;;;;;3.67;1.48;;;13.00;99.90;;;;;;4951832;28;20055;-79
2023/06/05 01:15:56;;;;;;;3.22;1.40;;;13.00;99.90;;;;;;4951522;28;20525;-78
2023/06/05 01:18:45;;;;;;;3.42;1.35;;;13.00;99.90;;;;;;4953660;28;20142;-78
2023/06/05 01:21:32;;;;;;;3.75;1.63;;;13.00;99.90;;;;;;4951127;29;20090;-78
2023/06/05 01:24:22;;;;;;;4.00;1.42;;;13.10;99.90;;;;;;4951444;28;20106;-79
2023/06/05 01:27:18;;;;;;;6.22;2.03;;;13.10;99.90;;;;;;4938203;28;20074;-78
2023/06/05 01:30:28;;;;;;;4.65;1.73;;;13.10;99.90;;;;;;4956213;28;20077;-78
2023/06/05 01:33:34;;;;;;;3.60;1.35;;;13.10;99.90;;;;;;4954142;28;20098;-78
2023/06/05 01:36:21;;;;;;;3.35;1.58;;;13.10;99.90;;;;;;4956001;28;20051;-77
2023/06/05 01:39:09;;;;;;;3.97;1.35;;;13.00;99.90;;;;;;4955713;28;20054;-79
2023/06/05 01:41:56;;;;;;;2.88;1.38;;;13.00;99.90;;;;;;4955875;28;20058;-79
2023/06/05 01:44:44;;;;;;;3.42;1.38;;;13.00;99.90;;;;;;4954750;29;20562;-78
2023/06/05 01:47:30;;;;;;;7.30;2.50;;;13.00;99.90;;;;;;4954890;29;20051;-78
2023/06/05 01:50:17;;;;;;;6.68;1.73;;;13.00;99.90;;;;;;4955167;28;20047;-77
2023/06/05 01:53:05;;;;;;;3.25;1.40;;;13.00;99.90;;;;;;4924775;29;20102;-78
2023/06/05 01:55:53;;;;;;;3.17;1.13;;;13.00;99.90;;;;;;4954392;29;20154;-78
2023/06/05 01:58:39;;;;;;;3.10;1.20;;;13.00;99.90;;;;;;4955225;28;20054;-79
2023/06/05 02:01:28;;;;;;;3.45;1.33;;;12.90;99.90;;;;;;4954479;29;20062;-78
2023/06/05 02:04:16;;;;;;;4.28;1.50;;;12.90;99.90;;;;;;4956044;28;20059;-78
2023/06/05 02:07:03;;;;;;;4.30;1.40;;;13.00;99.90;;;;;;4955099;28;20055;-78
2023/06/05 02:09:49;;;;;;;3.63;1.33;;;12.90;99.90;;;;;;4938098;28;20051;-78
2023/06/05 02:12:41;;;;;;;3.63;1.52;;;12.90;99.90;;;;;;4937226;29;20089;-78
2023/06/05 02:15:31;;;;;;;3.42;1.50;;;13.00;99.90;;;;;;4955062;28;20086;-78
2023/06/05 02:18:17;;;;;;;3.30;1.45;;;13.00;99.90;;;;;;4954896;28;20043;-78
2023/06/05 02:21:04;;;;;;;3.92;1.85;;;13.00;99.90;;;;;;4953427;28;20062;-79
2023/06/05 02:23:51;;;;;;;4.03;1.60;;;13.00;99.90;;;;;;4940223;29;20051;-78
2023/06/05 02:26:37;;;;;;;2.45;1.17;;;13.00;99.90;;;;;;4953867;29;20522;-78
2023/06/05 02:29:23;;;;;;;4.78;1.63;;;13.00;99.90;;;;;;4954455;28;20054;-79
2023/06/05 02:32:09;;;;;;;2.63;1.17;;;13.00;99.90;;;;;;4954099;29;20047;-78
2023/06/05 02:34:58;;;;;;;3.78;0.95;;;13.00;99.90;;;;;;4954058;29;20067;-77
2023/06/05 02:37:44;;;;;;;3.95;1.15;;;12.90;99.90;;;;;;4936646;29;20063;-78
2023/06/05 02:40:30;;;;;;;3.35;1.20;;;12.90;99.90;;;;;;4936106;28;20062;-78
2023/06/05 02:43:18;;;;;;;2.60;1.20;;;12.90;99.90;;;;;;4951550;29;20119;-77
2023/06/05 02:46:04;;;;;;;4.32;1.20;;;12.90;99.90;;;;;;4953105;29;20169;-78
2023/06/05 02:48:50;;;;;;;2.85;1.30;;;12.90;99.90;;;;;;4923898;29;20055;-78
2023/06/05 02:51:37;;;;;;;2.88;1.02;;;12.90;99.90;;;;;;4955145;28;20047;-78
2023/06/05 02:54:23;;;;;;;3.35;1.30;;;12.90;99.90;;;;;;4954193;29;20051;-78
2023/06/05 02:57:09;;;;;;;3.05;1.23;;;12.90;99.90;;;;;;4952467;29;20055;-77
2023/06/05 02:59:55;;;;;;;4.07;1.40;;;12.80;99.90;;;;;;4952179;29;20091;-77
2023/06/05 03:02:41;;;;;;;4.30;1.27;;;12.80;99.90;;;;;;4952634;28;20051;-77
2023/06/05 03:05:28;;;;;;;2.78;1.30;;;12.80;99.90;;;;;;4936702;29;20051;-77
2023/06/05 03:08:14;;;;;;;4.20;1.55;;;12.80;99.90;;;;;;4936390;29;20063;-77
2023/06/05 03:11:01;;;;;;;4.25;1.10;;;12.80;99.90;;;;;;4937443;28;20138;-77
2023/06/05 03:13:47;;;;;;;2.78;1.23;;;12.80;99.90;;;;;;4952986;28;20078;-77
2023/06/05 03:16:37;;;;;;;2.90;1.33;;;12.80;99.90;;;;;;4952027;28;20589;-77
2023/06/05 03:19:23;;;;;;;5.88;1.60;;;12.80;99.90;;;;;;4953022;28;20051;-77
2023/06/05 03:22:09;;;;;;;3.50;1.55;;;12.70;99.90;;;;;;4952680;29;20057;-78
2023/06/05 03:24:55;;;;;;;3.65;1.58;;;12.80;99.90;;;;;;4953354;28;20503;-78
2023/06/05 03:27:42;;;;;;;3.53;1.23;;;12.80;99.90;;;;;;4952907;29;20055;-78
2023/06/05 03:30:27;;;;;;;3.75;1.50;;;12.80;99.90;;;;;;4953063;29;20087;-78
2023/06/05 03:33:15;;;;;;;2.70;1.38;;;12.70;99.90;;;;;;4952804;29;20488;-79
2023/06/05 03:36:01;;;;;;;4.43;1.38;;;12.80;99.90;;;;;;4952511;29;20094;-78
2023/06/05 03:38:47;;;;;;;3.42;1.27;;;12.70;99.90;;;;;;4952843;28;20289;-78
2023/06/05 03:41:34;;;;;;;3.47;1.23;;;12.70;99.90;;;;;;4921989;29;20055;-78
2023/06/05 03:44:20;;;;;;;3.03;1.38;;;12.70;99.90;;;;;;4952110;29;20143;-79
2023/06/05 03:47:07;;;;;;;3.10;1.48;;;12.70;99.90;;;;;;4952241;29;20142;-79
2023/06/05 03:49:55;;;;;;;3.03;1.48;;;12.70;99.90;;;;;;4953531;28;20051;-79
2023/06/05 03:52:41;;;;;;;3.15;1.45;;;12.70;99.90;;;;;;4952507;29;20055;-79
2023/06/05 03:55:40;;;;;;;3.17;1.50;;;12.80;99.90;;;;;;4953030;28;20074;-78
2023/06/05 03:58:28;;;;;;;4.75;1.52;;;12.80;99.90;;;;;;4954040;28;20047;-78
2023/06/05 04:01:14;;;;;;;2.78;1.20;;;12.80;99.90;;;;;;4951967;28;20063;-79
2023/06/05 04:04:00;;;;;;;3.75;1.23;;;12.80;99.90;;;;;;4951041;29;20065;-79
2023/06/05 04:06:46;;;;;;;3.85;1.50;;;12.80;99.90;;;;;;4952586;28;20051;-79
2023/06/05 04:09:33;;;;;;;5.68;1.70;;;12.80;99.90;;;;;;4952277;29;20416;-79
2023/06/05 04:12:20;;;;;;;3.63;1.40;;;12.80;99.90;;;;;;4952412;28;20055;-78
2023/06/05 04:15:09;;;;;;;3.97;1.65;;;12.80;99.90;;;;;;4952093;28;20091;-79
2023/06/05 04:17:55;;;;;;;3.40;1.42;;;12.80;99.90;;;;;;4952955;28;20411;-77
2023/06/05 04:20:41;;;;;;;3.42;1.70;;;12.80;99.90;;;;;;4952101;29;20055;-78
2023/06/05 04:23:27;;;;;;;3.55;1.42;;;12.80;99.90;;;;;;4951498;28;20521;-77
2023/06/05 04:26:15;;;;;;;6.05;1.65;;;12.80;99.90;;;;;;4951360;28;20047;-79
2023/06/05 04:29:02;;;;;;;3.17;1.42;;;12.80;99.90;;;;;;4951763;29;20062;-78
2023/06/05 04:31:49;;;;;;;4.93;1.33;;;12.90;99.90;;;;;;4952296;29;20051;-78
2023/06/05 04:34:35;;;;;;;3.95;1.58;;;12.90;99.90;;;;;;4952138;29;20051;-79
2023/06/05 04:37:21;;;;;;;2.80;1.13;;;13.00;99.90;;;;;;4949876;29;20055;-79
2023/06/05 04:40:09;;;;;;;3.30;1.50;;;13.00;99.90;;;;;;4951999;29;20055;-77
2023/06/05 04:42:56;;;;;;;2.65;1.13;;;13.00;99.90;;;;;;4950057;29;20097;-78
2023/06/05 04:45:42;;;;;;;5.30;1.73;;;13.00;99.90;;;;;;4952446;29;20496;-78
2023/06/05 04:48:30;;;;;;;5.35;1.80;;;13.10;99.90;;;;;;4952292;28;20551;-78
2023/06/05 04:51:16;;;;;;;6.28;1.95;;;13.10;99.90;;;;;;4951844;28;20411;-80
2023/06/05 04:54:02;;;;;;;2.95;1.50;;;13.10;99.90;;;;;;4950217;29;20047;-78
2023/06/05 04:56:49;;;;;;;5.88;2.10;;;13.10;99.90;;;;;;4950451;29;20083;-77
2023/06/05 04:59:35;;;;;;;4.45;1.88;;;13.10;99.90;;;;;;4951670;29;20073;-76
2023/06/05 05:02:21;;;;;;;4.28;1.83;;;13.10;99.90;;;;;;4952482;28;20047;-77
2023/06/05 05:05:08;;;;;;;4.28;1.90;;;13.20;99.90;;;;;;4955607;29;20051;-78
2023/06/05 05:07:54;;;;;;;5.32;2.28;;;13.20;99.90;;;;;;4938296;29;20412;-76
2023/06/05 05:10:40;;;;;;;5.60;1.80;;;13.20;99.90;;;;;;4946341;29;20051;-78
2023/06/05 05:13:26;;;;;;;5.55;1.95;;;13.20;99.90;;;;;;4954727;28;20051;-80
2023/06/05 05:16:13;;;;;;;4.22;1.40;;;13.20;99.90;;;;;;4955023;28;20153;-79
2023/06/05 05:18:59;;;;;;;7.28;2.38;;;13.30;99.90;;;;;;4955321;28;20055;-79
2023/06/05 05:21:47;;;;;;;5.38;2.03;;;13.30;99.90;;;;;;4941863;28;20499;-78
2023/06/05 05:24:33;;;;;;;6.93;2.47;;;13.40;99.90;;;;;;4913297;29;20112;-78
2023/06/05 05:27:19;;;;;;;8.13;2.60;;;13.50;99.90;;;;;;4938281;29;20144;-78
2023/06/05 05:30:06;;;;;;;6.88;2.55;;;13.50;99.90;;;;;;4953472;29;20512;-78
2023/06/05 05:32:52;;;;;;;6.57;2.50;;;13.50;99.90;;;;;;4956141;28;20047;-78
2023/06/05 05:35:38;;;;;;;6.05;2.10;;;13.60;99.90;;;;;;4942486;28;20156;-78
2023/06/05 05:38:24;;;;;;;6.05;1.92;;;13.50;99.90;;;;;;4955110;29;20134;-79
2023/06/05 05:41:11;;;;;;;7.00;2.40;;;13.50;99.90;;;;;;4937824;29;20499;-79
2023/06/05 05:43:57;;;;;;;8.95;2.30;;;13.50;99.90;;;;;;4952804;29;20051;-78
2023/06/05 05:46:46;;;;;;;7.03;2.50;;;13.60;99.90;;;;;;4954756;29;20058;-78
2023/06/05 05:49:32;;;;;;;6.50;2.10;;;13.60;99.90;;;;;;4953228;29;20059;-78
2023/06/05 05:52:20;;;;;;;6.18;2.17;;;13.70;99.90;;;;;;4937921;29;20051;-77
2023/06/05 05:55:08;;;;;;;5.70;1.95;;;13.70;99.90;;;;;;4953906;29;20514;-77
2023/06/05 05:57:54;;;;;;;5.97;1.95;;;13.60;99.90;;;;;;4939128;28;20055;-78
2023/06/05 06:00:40;;;;;;;5.20;2.10;;;13.70;99.90;;;;;;4954984;28;20057;-77
2023/06/05 06:03:26;;;;;;;7.00;1.90;;;13.80;99.90;;;;;;4954496;29;20114;-78
2023/06/05 06:06:13;;;;;;;6.03;2.30;;;13.70;99.90;;;;;;4954216;28;20277;-78
2023/06/05 06:08:59;;;;;;;9.95;2.25;;;13.80;99.90;;;;;;4954508;29;20054;-77
2023/06/05 06:11:46;;;;;;;8.20;2.70;;;13.90;99.90;;;;;;4924181;28;20187;-77
2023/06/05 06:14:35;;;;;;;5.18;1.77;;;13.90;99.90;;;;;;4937463;28;20411;-79
2023/06/05 06:17:21;;;;;;;3.75;2.00;;;14.00;99.90;;;;;;4953210;29;20141;-79
2023/06/05 06:20:12;;;;;;;4.47;2.03;;;14.10;99.90;;;;;;4953930;29;20051;-78
2023/06/05 06:22:58;;;;;;;4.20;1.88;;;14.20;99.90;;;;;;4953384;28;20057;-78
2023/06/05 06:25:45;;;;;;;4.97;1.92;;;14.30;99.90;;;;;;4951419;29;20055;-78
2023/06/05 06:28:31;;;;;;;4.13;1.88;;;14.30;99.90;;;;;;4969679;28;20479;-78
2023/06/05 06:31:17;;;;;;;4.20;2.08;;;14.30;99.90;;;;;;4951375;29;20058;-78
2023/06/05 06:34:03;;;;;;;11.40;2.72;;;14.30;99.90;;;;;;4953268;29;20043;-78
2023/06/05 06:36:49;;;;;;;5.65;2.10;;;14.40;99.90;;;;;;4953191;29;20069;-77
2023/06/05 06:39:35;;;;;;;7.38;2.17;;;14.40;99.90;;;;;;4954142;29;20062;-77
2023/06/05 06:42:21;;;;;;;7.40;2.10;;;14.50;99.90;;;;;;4953324;29;20229;-78
2023/06/05 06:45:08;;;;;;;4.38;1.80;;;14.50;99.90;;;;;;4953268;29;20051;-78
2023/06/05 06:47:54;;;;;;;7.85;2.05;;;14.50;99.90;;;;;;4952100;28;20136;-78
2023/06/05 06:50:40;;;;;;;6.85;1.70;;;14.60;99.90;;;;;;4953606;29;20483;-78
2023/06/05 06:53:26;;;;;;;6.68;2.20;;;14.70;99.90;;;;;;4953799;29;20112;-78
2023/06/05 06:56:15;;;;;;;7.20;1.88;;;14.80;99.90;;;;;;4953355;29;20142;-78
2023/06/05 06:59:02;;;;;;;6.13;2.33;;;14.90;99.90;;;;;;4938729;29;20114;-77
2023/06/05 07:02:15;;;;;;;5.30;1.92;;;15.00;99.90;;;;;;4954149;28;20055;-77
2023/06/05 07:05:01;;;;;;;3.90;1.55;;;15.10;99.90;;;;;;4952463;28;20051;-77
2023/06/05 07:07:47;;;;;;;8.93;2.47;;;15.00;99.90;;;;;;4969138;28;20145;-78
2023/06/05 07:10:33;;;;;;;5.18;1.90;;;15.10;99.90;;;;;;4953569;29;20047;-78
2023/06/05 07:13:19;;;;;;;3.85;2.10;;;15.10;99.90;;;;;;4953314;28;20406;-78
2023/06/05 07:16:05;;;;;;;4.30;1.90;;;15.20;99.90;;;;;;4950469;28;20134;-78
2023/06/05 07:18:53;;;;;;;5.53;1.70;;;15.10;99.90;;;;;;4935866;29;20055;-77
2023/06/05 07:21:39;;;;;;;5.78;1.90;;;15.10;99.90;;;;;;4953157;29;20084;-78
2023/06/05 07:24:26;;;;;;;4.63;2.00;;;15.00;99.90;;;;;;4936819;28;20062;-78
2023/06/05 07:27:12;;;;;;;5.15;2.00;;;15.10;99.90;;;;;;4953913;28;20106;-77
2023/06/05 07:29:59;;;;;;;5.15;1.90;;;15.20;99.90;;;;;;4952488;29;20514;-77
2023/06/05 07:32:45;;;;;;;6.50;1.80;;;15.10;99.90;;;;;;4936878;28;20142;-77
2023/06/05 07:35:31;;;;;;;5.55;2.13;;;15.10;99.90;;;;;;4953823;29;20055;-78
2023/06/05 07:38:18;;;;;;;3.83;1.70;;;15.10;99.90;;;;;;4953324;28;20054;-78
2023/06/05 07:41:05;;;;;;;3.90;1.70;;;15.10;99.90;;;;;;4952526;29;20419;-78
2023/06/05 07:43:51;;;;;;;4.22;2.03;;;15.10;99.90;;;;;;4952792;29;20071;-79
2023/06/05 07:46:40;;;;;;;5.65;2.17;;;15.30;99.90;;;;;;4967172;28;20468;-78
2023/06/05 07:49:31;;;;;;;3.72;1.88;;;15.30;99.90;;;;;;4952713;29;20512;-78
2023/06/05 07:52:17;;;;;;;4.07;1.60;;;15.20;99.90;;;;;;4952770;28;20055;-79
2023/06/05 07:55:04;;;;;;;5.03;1.60;;;15.40;99.90;;;;;;4935092;29;20062;-78
2023/06/05 07:57:53;;;;;;;3.50;1.50;;;15.40;99.90;;;;;;4953142;28;20052;-79
2023/06/05 08:00:41;;;;;;;2.78;1.13;;;15.60;99.90;;;;;;4951576;28;20090;-79
2023/06/05 08:03:27;;;;;;;3.97;1.63;;;15.60;99.90;;;;;;4935122;29;20057;-77
2023/06/05 08:06:13;;;;;;;3.03;1.40;;;15.60;99.90;;;;;;4952494;29;20054;-78
2023/06/05 08:09:00;;;;;;;4.80;1.63;;;15.60;99.90;;;;;;4935119;29;20077;-79
2023/06/05 08:11:46;;;;;;;5.07;1.52;;;15.80;99.90;;;;;;4938704;28;20407;-78
2023/06/05 08:14:33;;;;;;;2.85;1.48;;;15.80;99.90;;;;;;4934794;28;20064;-77
2023/06/05 08:17:20;;;;;;;4.68;1.10;;;15.90;99.90;;;;;;4951668;29;20125;-78
2023/06/05 08:20:08;;;;;;;3.15;1.15;;;15.90;99.90;;;;;;4934687;29;20059;-79
2023/06/05 08:22:57;;;;;;;5.45;1.60;;;15.90;99.90;;;;;;4937490;29;20138;-77
2023/06/05 08:25:43;;;;;;;4.30;1.67;;;15.90;99.90;;;;;;4952239;29;20644;-78
2023/06/05 08:28:29;;;;;;;5.53;1.27;;;16.00;99.90;;;;;;4952337;28;20115;-78
2023/06/05 08:31:16;;;;;;;3.92;1.40;;;16.00;99.90;;;;;;4952197;29;20208;-79
2023/06/05 08:34:02;;;;;;;3.75;1.27;;;16.10;99.90;;;;;;4951833;29;20110;-79
2023/06/05 08:36:48;;;;;;;3.25;1.13;;;16.10;99.90;;;;;;4951340;28;20534;-79
2023/06/05 08:39:34;;;;;;;3.80;1.00;;;16.20;99.90;;;;;;4942841;28;20389;-78
2023/06/05 08:42:24;;;;;;;4.75;1.63;;;16.20;99.90;;;;;;4941408;29;20055;-77
2023/06/05 08:45:11;;;;;;;4.38;1.40;;;16.50;99.90;;;;;;4939891;28;20114;-78
2023/06/05 08:48:03;;;;;;;2.63;1.15;;;16.60;99.90;;;;;;4956314;28;20537;-78
2023/06/05 08:50:51;;;;;;;2.75;1.25;;;16.70;99.90;;;;;;4955667;29;20047;-78
2023/06/05 08:53:39;;;;;;;2.63;1.20;;;16.80;99.80;;;;;;4955825;29;20121;-78
2023/06/05 08:56:27;;;;;;;6.68;1.35;;;17.00;99.60;;;;;;4938633;29;20055;-77
2023/06/05 08:59:14;;;;;;;2.75;1.35;;;17.20;99.50;;;;;;4939897;28;20058;-79
2023/06/05 09:02:01;;;;;;;3.13;1.20;;;17.30;99.20;;;;;;4955552;29;20134;-78
2023/06/05 09:04:49;;;;;;;2.10;1.00;;;17.30;99.00;;;;;;4941306;29;20141;-79
2023/06/05 09:07:38;;;;;;;1.30;0.73;;;17.40;98.80;;;;;;4940031;28;20050;-78
2023/06/05 09:10:26;;;;;;;1.85;0.70;;;17.50;98.80;;;;;;4957222;28;20059;-79
2023/06/05 09:13:12;;;;;;;2.30;1.08;;;17.60;98.20;;;;;;4955190;28;20051;-77
2023/06/05 09:15:58;;;;;;;4.57;1.15;;;17.90;97.80;;;;;;4954166;28;20070;-78
2023/06/05 09:18:58;;;;;;;2.28;1.08;;;17.90;97.40;;;;;;4938788;29;20109;-79
2023/06/05 09:21:53;;;;;;;1.70;0.80;;;18.10;97.00;;;;;;4955062;29;20070;-78
2023/06/05 09:24:43;;;;;;;2.67;1.25;;;18.20;96.30;;;;;;4955945;28;20043;-79
2023/06/05 09:27:29;;;;;;;2.63;1.40;;;18.20;96.80;;;;;;4937881;29;20051;-79
2023/06/05 09:30:15;;;;;;;2.05;0.85;;;18.40;96.90;;;;;;4936960;29;20059;-80
2023/06/05 09:33:10;;;;;;;2.30;0.90;;;18.60;96.90;;;;;;4955006;29;20137;-79
2023/06/05 09:36:03;;;;;;;2.10;0.90;;;18.40;96.70;;;;;;4955193;29;20047;-79
2023/06/05 09:38:50;;;;;;;2.45;0.80;;;18.50;96.80;;;;;;4954900;28;20455;-79
2023/06/05 09:41:42;;;;;;;2.55;0.77;;;18.50;97.10;;;;;;4955338;28;20055;-79
2023/06/05 09:44:31;;;;;;;2.45;0.75;;;18.60;96.40;;;;;;4953981;28;20059;-80
2023/06/05 09:47:23;;;;;;;2.67;0.90;;;18.60;96.90;;;;;;4954347;29;20518;-79
2023/06/05 09:50:21;;;;;;;2.53;0.60;;;18.60;96.40;;;;;;4954037;29;20059;-78
2023/06/05 09:53:11;;;;;;;2.95;0.70;;;18.40;96.10;;;;;;4955112;28;20491;-79
2023/06/05 09:55:57;;;;;;;1.92;0.73;;;18.60;96.80;;;;;;4955448;28;20046;-78
2023/06/05 09:58:51;;;;;;;2.72;0.82;;;18.90;96.90;;;;;;4952697;29;20118;-79
2023/06/05 10:01:40;;;;;;;2.63;0.70;;;19.30;95.80;;;;;;4969691;28;20068;-78
2023/06/05 10:04:28;;;;;;;2.40;0.85;;;19.50;95.00;;;;;;4954222;29;20066;-78
2023/06/05 10:07:15;;;;;;;2.97;1.40;;;19.80;94.80;;;;;;4940341;29;20534;-79
2023/06/05 10:10:02;;;;;;;3.70;0.90;;;19.70;94.50;;;;;;4954340;29;20059;-80
2023/06/05 10:12:48;;;;;;;2.63;0.80;;;19.70;94.30;;;;;;4955421;28;20051;-79
2023/06/05 10:15:37;;;;;;;3.13;0.80;;;19.50;94.10;;;;;;4954643;28;20186;-79
2023/06/05 10:18:23;;;;;;;3.58;1.00;;;19.40;94.30;;;;;;4938626;28;20058;-80
2023/06/05 10:21:10;;;;;;;3.50;1.30;;;19.40;94.30;;;;;;4952092;29;20055;-77
2023/06/05 10:23:58;;;;;;;2.95;1.23;;;19.70;94.10;;;;;;4954008;29;20066;-76
2023/06/05 10:27:16;;;;;;;4.45;1.00;;;19.60;93.40;;;;;;4954129;28;20515;-78
2023/06/05 10:30:35;;;;;;;1.88;0.80;;;19.80;93.20;;;;;;4954075;28;20051;-79
2023/06/05 10:33:31;;;;;;;3.13;0.80;;;20.20;92.70;;;;;;4924096;29;20078;-78
2023/06/05 10:36:41;;;;;;;2.28;1.05;;;20.40;92.70;;;;;;4952350;29;20645;-78
2023/06/05 10:39:29;;;;;;;2.35;0.77;;;20.90;92.90;;;;;;4954335;28;20055;-78
2023/06/05 10:42:26;;;;;;;2.25;1.00;;;21.10;92.40;;;;;;4953343;29;20530;-79
2023/06/05 10:45:12;;;;;;;3.13;0.82;;;21.10;91.70;;;;;;4939830;29;20059;-78
2023/06/05 10:47:58;;;;;;;2.70;1.05;;;21.20;91.90;;;;;;4953586;29;20048;-79
2023/06/05 10:50:44;;;;;;;1.83;0.80;;;21.50;91.70;;;;;;4952853;29;20055;-79
2023/06/05 10:53:49;;;;;;;2.78;1.27;;;22.00;91.30;;;;;;4953139;29;20055;-79
2023/06/05 10:57:01;;;;;;;2.28;1.00;;;21.90;89.30;;;;;;4954625;28;20047;-78
2023/06/05 11:00:10;;;;;;;1.90;0.80;;;21.90;89.90;;;;;;4946884;28;20054;-79
2023/06/05 11:02:57;;;;;;;2.25;1.20;;;21.90;89.40;;;;;;4954733;28;20142;-78
2023/06/05 11:06:12;;;;;;;2.35;1.00;;;22.10;90.50;;;;;;4936345;29;20070;-78
2023/06/05 11:09:14;;;;;;;2.83;1.02;;;22.40;89.10;;;;;;4937530;28;20487;-79
2023/06/05 11:12:01;;;;;;;2.45;0.95;;;22.70;89.70;;;;;;4953961;28;20134;-78
2023/06/05 11:14:48;;;;;;;2.38;0.98;;;22.90;87.40;;;;;;4935757;28;20202;-77
2023/06/05 11:17:39;;;;;;;3.67;1.02;;;23.00;86.60;;;;;;4953998;28;20117;-78
2023/06/05 11:20:28;;;;;;;5.18;1.40;;;23.10;85.80;;;;;;4939313;29;20411;-78
2023/06/05 11:23:15;;;;;;;2.42;1.10;;;23.10;85.30;;;;;;4951244;29;20094;-79
2023/06/05 11:26:40;;;;;;;5.38;1.20;;;23.40;84.30;;;;;;4952751;29;20051;-79
2023/06/05 11:29:26;;;;;;;3.85;1.38;;;23.60;83.70;;;;;;4954497;28;20047;-78
2023/06/05 11:32:13;;;;;;;3.25;1.20;;;23.80;84.00;;;;;;4953138;29;20476;-80
2023/06/05 11:34:59;;;;;;;5.20;1.17;;;23.70;83.40;;;;;;4952689;29;20058;-77
2023/06/05 11:37:46;;;;;;;3.78;1.00;;;23.70;82.80;;;;;;4953061;29;20134;-77
2023/06/05 11:40:32;;;;;;;3.13;1.20;;;23.90;81.30;;;;;;4952814;29;20043;-77
2023/06/05 11:43:18;;;;;;;2.95;1.13;;;23.70;80.60;;;;;;4952881;29;20047;-77
2023/06/05 11:46:05;;;;;;;4.30;0.93;;;23.80;81.30;;;;;;4952693;29;20062;-78
2023/06/05 11:48:51;;;;;;;3.08;1.10;;;23.90;80.20;;;;;;4935511;29;20389;-77
2023/06/05 11:51:37;;;;;;;2.30;0.93;;;24.00;81.00;;;;;;4952222;28;20394;-77
2023/06/05 11:54:25;;;;;;;3.15;1.20;;;24.40;80.40;;;;;;4953794;28;20070;-76
2023/06/05 11:57:13;;;;;;;2.97;1.35;;;24.80;79.80;;;;;;4953223;29;20055;-78
2023/06/05 11:59:59;;;;;;;5.10;1.08;;;24.90;79.50;;;;;;4934698;29;20458;-77
2023/06/05 12:02:46;;;;;;;4.15;1.27;;;24.90;78.00;;;;;;4952754;29;20089;-77
2023/06/05 12:05:32;;;;;;;2.25;1.00;;;25.00;78.30;;;;;;4938136;29;20134;-77
2023/06/05 12:08:25;;;;;;;5.07;1.52;;;25.60;76.60;;;;;;4951340;28;20043;-77
2023/06/05 12:11:27;;;;;;;2.00;0.98;;;25.20;76.00;;;;;;4951846;28;20488;-77
2023/06/05 12:14:31;;;;;;;3.63;1.27;;;25.30;74.20;;;;;;4935643;29;20094;-77
2023/06/05 12:17:17;;;;;;;2.83;1.23;;;25.70;73.40;;;;;;4933087;29;20126;-77
2023/06/05 12:20:04;;;;;;;4.25;1.48;;;25.60;74.50;;;;;;4933759;28;20247;-77
2023/06/05 12:22:50;;;;;;;3.22;1.25;;;25.60;73.90;;;;;;4918848;29;20519;-78
2023/06/05 12:25:37;;;;;;;3.92;1.50;;;25.60;72.70;;;;;;4916448;29;20491;-77
2023/06/05 12:28:23;;;;;;;2.88;1.25;;;25.40;73.30;;;;;;4933294;29;20055;-77
2023/06/05 12:31:09;;;;;;;4.03;1.63;;;25.60;73.50;;;;;;4931915;29;20044;-77
2023/06/05 12:33:56;;;;;;;3.70;1.40;;;26.00;72.10;;;;;;4932659;29;20449;-78
2023/06/05 12:36:44;;;;;;;5.95;1.70;;;25.60;71.10;;;;;;4931858;29;20052;-78
2023/06/05 12:39:30;;;;;;;3.85;1.40;;;25.30;71.00;;;;;;4946962;29;20052;-77
2023/06/05 12:42:16;;;;;;;5.53;1.88;;;25.40;70.70;;;;;;4931642;29;20055;-79
2023/06/05 12:45:02;;;;;;;5.32;1.67;;;25.40;71.90;;;;;;4932468;29;20052;-77
2023/06/05 12:47:48;;;;;;;9.07;1.80;;;25.50;71.20;;;;;;4932895;29;20052;-76
2023/06/05 12:50:34;;;;;;;3.45;1.40;;;25.50;70.40;;;;;;4930648;29;20052;-77
2023/06/05 12:53:20;;;;;;;5.82;1.70;;;25.10;69.70;;;;;;4931427;29;20514;-77
2023/06/05 12:56:06;;;;;;;3.45;1.50;;;25.30;69.70;;;;;;4932312;29;20048;-77
2023/06/05 12:58:55;;;;;;;3.15;1.60;;;25.40;69.70;;;;;;4930363;29;20106;-77
2023/06/05 13:01:41;;;;;;;4.07;1.50;;;26.00;69.10;;;;;;4931335;29;20071;-78
2023/06/05 13:04:27;;;;;;;4.00;1.60;;;26.10;70.00;;;;;;4931095;29;20048;-78
2023/06/05 13:07:13;;;;;;;4.35;1.30;;;26.60;68.40;;;;;;4930888;29;20118;-78
2023/06/05 13:09:59;;;;;;;3.75;1.40;;;26.80;67.50;;;;;;4932859;28;20067;-78
2023/06/05 13:12:45;;;;;;;5.18;2.28;;;26.50;66.60;;;;;;5361152;23;1160346;-78
2023/06/05 13:15:31;;;;;;;6.32;1.77;;;26.20;66.90;;;;;;4953731;28;20058;-77
2023/06/05 13:18:17;;;;;;;4.20;1.45;;;26.20;66.60;;;;;;4953974;28;20058;-78
2023/06/05 13:21:04;;;;;;;3.78;1.73;;;26.20;67.00;;;;;;4953790;28;20057;-79
2023/06/05 13:23:51;;;;;;;4.15;1.65;;;26.40;66.10;;;;;;4972548;28;20043;-78
2023/06/05 13:26:37;;;;;;;3.33;1.50;;;26.10;66.30;;;;;;4975388;28;20050;-79
2023/06/05 13:29:23;;;;;;;3.20;1.45;;;26.10;66.40;;;;;;4974998;28;20054;-78
2023/06/05 13:32:09;;;;;;;4.65;1.73;;;26.60;65.70;;;;;;4960598;28;20047;-78
2023/06/05 13:34:57;;;;;;;4.72;1.90;;;26.90;64.90;;;;;;4975022;28;20054;-79
2023/06/05 13:37:43;;;;;;;4.28;1.52;;;27.40;64.20;;;;;;4959569;28;20061;-79
2023/06/05 13:40:31;;;;;;;6.88;1.70;;;27.20;63.10;;;;;;4975020;28;20058;-79
2023/06/05 13:43:17;;;;;;;3.42;1.50;;;26.90;62.80;;;;;;4957818;28;20059;-78
2023/06/05 13:46:03;;;;;;;4.55;1.40;;;27.10;63.40;;;;;;4975142;28;20183;-78
2023/06/05 13:48:49;;;;;;;4.60;1.48;;;27.40;61.90;;;;;;4975300;28;20051;-79
2023/06/05 13:51:37;;;;;;;15.02;2.42;;;27.30;61.40;;;;;;4957394;28;20471;-78
2023/06/05 13:54:24;;;;;;;6.40;2.30;;;27.30;61.20;;;;;;4974201;28;20200;-78
2023/06/05 13:57:10;;;;;;;3.45;1.33;;;27.50;61.80;;;;;;4974605;28;20042;-78
2023/06/05 13:59:57;;;;;;;3.60;1.40;;;27.70;60.80;;;;;;4975431;28;20050;-79
2023/06/05 14:02:43;;;;;;;5.47;1.48;;;28.00;61.50;;;;;;4973716;28;20050;-79
2023/06/05 14:05:30;;;;;;;3.50;1.48;;;28.30;60.30;;;;;;4974408;28;20090;-79
2023/06/05 14:08:17;;;;;;;4.70;1.75;;;28.00;59.10;;;;;;4974957;28;20096;-79
2023/06/05 14:11:03;;;;;;;5.65;1.70;;;27.90;59.20;;;;;;4975292;28;20057;-79
2023/06/05 14:13:49;;;;;;;3.08;1.40;;;27.90;59.50;;;;;;4974087;28;20058;-78
2023/06/05 14:16:36;;;;;;;3.13;1.58;;;28.00;59.00;;;;;;4973564;28;20050;-78
2023/06/05 14:19:22;;;;;;;4.28;1.40;;;28.40;58.70;;;;;;4957588;28;20069;-79
2023/06/05 14:22:08;;;;;;;3.72;1.63;;;28.60;58.30;;;;;;4959208;28;20062;-78
2023/06/05 14:24:55;;;;;;;3.83;1.60;;;28.50;58.00;;;;;;4973224;28;20505;-78
2023/06/05 14:27:41;;;;;;;4.25;1.45;;;28.50;58.00;;;;;;4973188;28;20645;-78
2023/06/05 14:30:28;;;;;;;4.30;1.75;;;28.40;57.20;;;;;;4974108;28;20113;-78
2023/06/05 14:33:16;;;;;;;5.97;1.50;;;28.30;57.10;;;;;;4959295;28;20051;-78